createdAt,value
2023-04-15T00:01:22.619Z,96.20
2023-04-15T00:03:56.672Z,96.00
2023-04-15T00:06:26.331Z,96.10
2023-04-15T00:08:57.510Z,96.10
2023-04-15T00:11:26.925Z,96.20
2023-04-15T00:13:56.457Z,96.20
2023-04-15T00:16:26.571Z,96.20
2023-04-15T00:18:56.807Z,96.10
2023-04-15T00:21:27.621Z,96.10
2023-04-15T00:23:57.346Z,96.10
2023-04-15T00:26:27.152Z,96.10
2023-04-15T00:28:58.156Z,95.90
2023-04-15T00:31:28.306Z,96.00
2023-04-15T00:33:58.381Z,96.00
2023-04-15T00:36:27.890Z,95.90
2023-04-15T00:38:57.903Z,95.90
2023-04-15T00:41:27.548Z,95.80
2023-04-15T00:43:57.060Z,95.80
2023-04-15T00:46:29.597Z,95.90
2023-04-15T00:48:59.198Z,95.70
2023-04-15T00:51:31.045Z,95.70
2023-04-15T00:54:02.013Z,95.70
2023-04-15T00:56:32.032Z,95.60
2023-04-15T00:59:02.454Z,95.70
2023-04-15T01:01:32.814Z,95.60
2023-04-15T01:04:02.326Z,95.70
2023-04-15T01:06:32.690Z,95.70
2023-04-15T01:09:01.732Z,95.60
2023-04-15T01:11:34.343Z,95.60
2023-04-15T01:14:04.461Z,95.80
2023-04-15T01:16:33.973Z,95.80
2023-04-15T01:19:05.161Z,95.90
2023-04-15T01:21:36.128Z,95.90
2023-04-15T01:24:10.289Z,95.80
2023-04-15T01:26:41.039Z,95.80
2023-04-15T01:29:10.550Z,95.70
2023-04-15T01:31:40.122Z,95.70
2023-04-15T01:34:09.631Z,95.50
2023-04-15T01:36:39.008Z,95.70
2023-04-15T01:39:08.598Z,95.70
2023-04-15T01:41:38.020Z,95.80
2023-04-15T01:44:08.091Z,95.80
2023-04-15T01:46:38.764Z,96.00
2023-04-15T01:49:08.386Z,95.90
2023-04-15T01:51:37.944Z,95.80
2023-04-15T01:54:08.303Z,95.90
2023-04-15T01:56:38.856Z,95.70
2023-04-15T01:59:08.539Z,95.70
2023-04-15T02:01:38.213Z,95.80
2023-04-15T02:04:08.038Z,95.80
2023-04-15T02:06:37.593Z,95.80
2023-04-15T02:09:06.941Z,95.80
2023-04-15T02:11:37.233Z,95.90
2023-04-15T02:14:06.725Z,95.90
2023-04-15T02:16:36.606Z,95.60
2023-04-15T02:19:06.025Z,95.60
2023-04-15T02:21:35.504Z,95.70
2023-04-15T02:24:06.565Z,95.60
2023-04-15T02:26:36.223Z,95.70
2023-04-15T02:29:05.728Z,95.80
2023-04-15T02:31:37.058Z,95.70
2023-04-15T02:34:06.765Z,95.80
2023-04-15T02:36:36.266Z,95.70
2023-04-15T02:39:07.666Z,95.80
2023-04-15T02:41:37.163Z,95.80
2023-04-15T02:44:09.769Z,95.80
2023-04-15T02:46:41.130Z,95.70
2023-04-15T02:49:10.915Z,95.80
2023-04-15T02:51:40.665Z,95.70
2023-04-15T02:54:10.412Z,95.90
2023-04-15T02:56:39.851Z,95.80
2023-04-15T02:59:09.327Z,95.90
2023-04-15T03:01:39.011Z,95.90
2023-04-15T03:04:09.122Z,95.90
2023-04-15T03:06:38.835Z,95.90
2023-04-15T03:09:09.912Z,95.80
2023-04-15T03:11:42.032Z,95.90
2023-04-15T03:14:11.816Z,96.00
2023-04-15T03:16:43.006Z,95.80
2023-04-15T03:19:13.147Z,95.90
2023-04-15T03:21:43.443Z,95.80
2023-04-15T03:24:12.820Z,95.90
2023-04-15T03:26:42.306Z,95.90
2023-04-15T03:29:13.460Z,96.00
2023-04-15T03:31:43.391Z,95.90
2023-04-15T03:34:12.585Z,95.90
2023-04-15T03:36:42.015Z,96.00
2023-04-15T03:39:11.838Z,96.00
2023-04-15T03:41:41.293Z,95.90
2023-04-15T03:44:10.744Z,96.00
2023-04-15T03:46:40.242Z,96.00
2023-04-15T03:49:09.763Z,96.20
2023-04-15T03:51:39.188Z,96.10
2023-04-15T03:54:08.670Z,96.20
2023-04-15T03:56:38.111Z,96.20
2023-04-15T03:59:07.484Z,96.40
2023-04-15T04:01:36.993Z,96.30
2023-04-15T04:04:06.628Z,96.40
2023-04-15T04:06:36.282Z,96.30
2023-04-15T04:09:05.720Z,96.30
2023-04-15T04:11:35.669Z,96.30
2023-04-15T04:14:05.080Z,96.40
2023-04-15T04:16:34.588Z,96.30
2023-04-15T04:19:04.112Z,96.20
2023-04-15T04:21:34.241Z,96.10
2023-04-15T04:24:07.180Z,96.10
2023-04-15T04:26:36.652Z,96.20
2023-04-15T04:29:06.453Z,96.20
2023-04-15T04:31:36.511Z,96.20
2023-04-15T04:34:06.100Z,96.20
2023-04-15T04:36:35.559Z,96.20
2023-04-15T04:39:05.003Z,96.30
2023-04-15T04:41:34.414Z,96.30
2023-04-15T04:44:03.947Z,96.20
2023-04-15T04:46:33.443Z,96.30
2023-04-15T04:49:03.068Z,96.40
2023-04-15T04:51:33.377Z,96.40
2023-04-15T04:54:03.845Z,96.60
2023-04-15T04:56:34.597Z,96.70
2023-04-15T04:59:03.958Z,96.70
2023-04-15T05:01:33.896Z,96.70
2023-04-15T05:04:05.286Z,96.80
2023-04-15T05:06:36.688Z,96.70
2023-04-15T05:09:06.227Z,96.70
2023-04-15T05:11:35.643Z,96.70
2023-04-15T05:14:05.135Z,96.60
2023-04-15T05:16:34.609Z,96.40
2023-04-15T05:19:04.041Z,96.50
2023-04-15T05:21:33.727Z,96.50
2023-04-15T05:24:03.212Z,96.40
2023-04-15T05:26:32.654Z,96.40
2023-04-15T05:29:02.343Z,96.30
2023-04-15T05:31:32.303Z,96.50
2023-04-15T05:34:01.798Z,96.50
2023-04-15T05:36:33.515Z,96.40
2023-04-15T05:39:03.150Z,96.30
2023-04-15T05:41:32.761Z,96.40
2023-04-15T05:44:02.245Z,96.40
2023-04-15T05:46:31.784Z,96.60
2023-04-15T05:49:01.455Z,96.60
2023-04-15T05:51:31.446Z,96.60
2023-04-15T05:54:01.280Z,96.50
2023-04-15T05:56:30.728Z,96.70
2023-04-15T05:59:00.329Z,96.80
2023-04-15T06:01:30.541Z,96.90
2023-04-15T06:04:00.373Z,96.80
2023-04-15T06:06:29.798Z,96.70
2023-04-15T06:08:59.779Z,96.90
2023-04-15T06:11:29.352Z,96.90
2023-04-15T06:13:58.851Z,96.90
2023-04-15T06:16:28.349Z,97.20
2023-04-15T06:18:57.739Z,97.10
2023-04-15T06:21:27.234Z,96.40
2023-04-15T06:23:56.854Z,96.30
2023-04-15T06:26:26.461Z,96.60
2023-04-15T06:28:56.359Z,98.40
2023-04-15T06:31:25.864Z,98.20
2023-04-15T06:33:55.395Z,98.00
2023-04-15T06:36:24.833Z,96.70
2023-04-15T06:38:54.279Z,95.20
2023-04-15T06:41:23.787Z,95.30
2023-04-15T06:43:53.318Z,94.60
2023-04-15T06:46:23.042Z,93.80
2023-04-15T06:48:52.528Z,93.20
2023-04-15T06:51:21.959Z,92.60
2023-04-15T06:53:51.368Z,92.70
2023-04-15T06:56:20.742Z,92.10
2023-04-15T06:58:50.518Z,91.40
2023-04-15T07:01:23.392Z,90.70
2023-04-15T07:03:52.849Z,90.50
2023-04-15T07:06:22.191Z,90.10
2023-04-15T07:08:51.651Z,89.60
2023-04-15T07:11:21.342Z,89.90
2023-04-15T07:13:50.876Z,89.80
2023-04-15T07:16:20.314Z,89.70
2023-04-15T07:18:49.742Z,89.30
2023-04-15T07:21:19.167Z,89.30
2023-04-15T07:23:48.676Z,89.80
2023-04-15T07:26:18.124Z,89.20
2023-04-15T07:28:47.609Z,88.90
2023-04-15T07:31:17.410Z,88.20
2023-04-15T07:33:46.868Z,88.00
2023-04-15T07:36:16.247Z,87.70
2023-04-15T07:38:45.689Z,87.70
2023-04-15T07:41:15.852Z,88.10
2023-04-15T07:43:45.330Z,87.50
2023-04-15T07:46:14.849Z,87.90
2023-04-15T07:48:44.399Z,88.00
2023-04-15T07:51:13.886Z,87.20
2023-04-15T07:53:43.308Z,89.00
2023-04-15T07:56:13.013Z,87.90
2023-04-15T07:58:42.555Z,88.30
2023-04-15T08:01:12.589Z,87.80
2023-04-15T08:03:42.217Z,87.80
2023-04-15T08:06:12.270Z,86.40
2023-04-15T08:08:41.792Z,86.50
2023-04-15T08:11:11.486Z,88.50
2023-04-15T08:13:40.911Z,84.10
2023-04-15T08:16:27.866Z,86.50
2023-04-15T08:18:58.199Z,85.70
2023-04-15T08:21:30.117Z,85.00
2023-04-15T08:24:00.203Z,85.00
2023-04-15T08:26:29.686Z,84.30
2023-04-15T08:28:59.327Z,82.70
2023-04-15T08:31:30.981Z,81.70
2023-04-15T08:34:02.802Z,77.30
2023-04-15T08:36:32.650Z,77.00
2023-04-15T08:39:04.046Z,81.10
2023-04-15T08:41:41.695Z,79.10
2023-04-15T08:44:12.068Z,78.80
2023-04-15T08:46:42.393Z,77.40
2023-04-15T08:49:13.374Z,77.00
2023-04-15T08:51:43.677Z,78.30
2023-04-15T08:54:12.466Z,78.10
2023-04-15T08:56:42.413Z,77.40
2023-04-15T08:59:12.448Z,78.30
2023-04-15T09:01:42.097Z,78.80
2023-04-15T09:04:12.599Z,78.80
2023-04-15T09:06:42.242Z,79.80
2023-04-15T09:09:14.514Z,79.20
2023-04-15T09:11:44.120Z,80.10
2023-04-15T09:14:13.717Z,79.30
2023-04-15T09:17:03.807Z,79.70
2023-04-15T09:19:34.548Z,79.60
2023-04-15T09:22:04.283Z,79.00
2023-04-15T09:24:42.344Z,80.00
2023-04-15T09:27:11.778Z,77.70
2023-04-15T09:29:43.027Z,77.20
2023-04-15T09:32:15.647Z,77.60
2023-04-15T09:34:45.915Z,77.30
2023-04-15T09:37:28.968Z,77.10
2023-04-15T09:39:52.334Z,76.70
2023-04-15T09:42:23.469Z,76.50
2023-04-15T09:44:53.481Z,76.70
2023-04-15T09:47:33.731Z,76.50
2023-04-15T09:50:03.708Z,77.10
2023-04-15T09:52:33.389Z,77.20
2023-04-15T09:55:02.881Z,77.20
2023-04-15T09:57:41.251Z,77.10
2023-04-15T10:00:11.241Z,77.60
2023-04-15T10:02:45.612Z,77.80
2023-04-15T10:05:17.970Z,78.20
2023-04-15T10:07:48.145Z,78.50
2023-04-15T10:10:18.272Z,77.90
2023-04-15T10:12:47.934Z,78.20
2023-04-15T10:15:19.248Z,77.60
2023-04-15T10:17:51.408Z,76.10
2023-04-15T10:20:21.680Z,75.30
2023-04-15T10:22:51.329Z,75.70
2023-04-15T10:25:21.426Z,75.30
2023-04-15T10:27:52.875Z,74.40
2023-04-15T10:30:22.372Z,74.70
2023-04-15T10:32:52.392Z,75.10
2023-04-15T10:35:23.036Z,75.90
2023-04-15T10:37:52.595Z,76.20
2023-04-15T10:40:32.532Z,76.50
2023-04-15T10:43:05.366Z,76.00
2023-04-15T10:45:39.646Z,73.80
2023-04-15T10:48:09.476Z,72.50
2023-04-15T10:50:39.367Z,73.80
2023-04-15T10:53:11.597Z,75.10
2023-04-15T10:55:41.213Z,75.70
2023-04-15T10:58:12.349Z,74.50
2023-04-15T11:00:41.951Z,74.60
2023-04-15T11:03:12.113Z,73.90
2023-04-15T11:05:53.095Z,72.20
2023-04-15T11:08:25.606Z,72.70
2023-04-15T11:10:55.412Z,73.20
2023-04-15T11:13:27.142Z,72.80
2023-04-15T11:16:01.432Z,71.40
2023-04-15T11:18:32.950Z,72.90
2023-04-15T11:21:04.891Z,72.10
2023-04-15T11:23:40.103Z,72.00
2023-04-15T11:26:12.210Z,72.30
2023-04-15T11:28:44.926Z,72.10
2023-04-15T11:31:20.196Z,72.30
2023-04-15T11:33:59.086Z,72.00
2023-04-15T11:36:30.054Z,72.30
2023-04-15T11:39:00.752Z,71.80
2023-04-15T11:41:30.497Z,70.90
2023-04-15T11:43:59.955Z,72.60
2023-04-15T11:46:32.781Z,71.80
2023-04-15T11:49:02.943Z,70.70
2023-04-15T11:51:36.191Z,70.90
2023-04-15T11:54:06.123Z,71.80
2023-04-15T11:56:35.932Z,72.40
2023-04-15T11:59:05.502Z,71.60
2023-04-15T12:01:36.421Z,71.80
2023-04-15T12:04:14.145Z,72.40
2023-04-15T12:06:43.748Z,71.10
2023-04-15T12:09:14.725Z,71.10
2023-04-15T12:11:53.677Z,71.50
2023-04-15T12:14:31.205Z,71.50
2023-04-15T12:17:02.917Z,70.60
2023-04-15T12:19:37.345Z,71.40
2023-04-15T12:22:12.893Z,72.80
2023-04-15T12:24:44.397Z,72.90
2023-04-15T12:27:15.201Z,73.30
2023-04-15T12:29:45.416Z,73.00
2023-04-15T12:32:16.520Z,72.00
2023-04-15T12:34:54.629Z,72.00
2023-04-15T12:37:24.080Z,70.90
2023-04-15T12:39:54.342Z,71.50
2023-04-15T12:42:23.929Z,72.20
2023-04-15T12:44:53.414Z,71.00
2023-04-15T12:47:22.832Z,72.40
2023-04-15T12:49:52.188Z,73.10
2023-04-15T12:52:21.986Z,72.90
2023-04-15T12:54:51.431Z,72.60
2023-04-15T12:57:21.094Z,73.40
2023-04-15T12:59:50.590Z,73.20
2023-04-15T13:02:21.314Z,74.20
2023-04-15T13:04:50.966Z,74.10
2023-04-15T13:07:20.487Z,74.40
2023-04-15T13:09:52.741Z,73.80
2023-04-15T13:12:22.211Z,74.50
2023-04-15T13:14:51.829Z,74.60
2023-04-15T13:17:22.117Z,74.50
2023-04-15T13:19:51.235Z,75.20
2023-04-15T13:22:21.693Z,74.50
2023-04-15T13:24:51.541Z,74.80
2023-04-15T13:27:21.496Z,75.60
2023-04-15T13:29:50.865Z,76.30
2023-04-15T13:32:20.306Z,75.80
2023-04-15T13:34:50.190Z,75.70
2023-04-15T13:37:19.670Z,75.60
2023-04-15T13:39:49.068Z,76.00
2023-04-15T13:42:18.485Z,75.60
2023-04-15T13:44:48.007Z,75.40
2023-04-15T13:47:17.577Z,75.40
2023-04-15T13:49:47.085Z,76.20
2023-04-15T13:52:16.721Z,76.10
2023-04-15T13:54:47.363Z,76.20
2023-04-15T13:57:18.817Z,76.00
2023-04-15T13:59:48.318Z,76.50
2023-04-15T14:02:17.934Z,76.60
2023-04-15T14:04:47.449Z,76.70
2023-04-15T14:07:17.062Z,76.40
2023-04-15T14:09:46.607Z,76.60
2023-04-15T14:12:17.092Z,76.50
2023-04-15T14:14:47.131Z,76.80
2023-04-15T14:17:16.755Z,76.50
2023-04-15T14:19:46.208Z,77.00
2023-04-15T14:22:15.878Z,77.30
2023-04-15T14:24:45.657Z,77.30
2023-04-15T14:27:15.381Z,77.60
2023-04-15T14:29:44.877Z,77.40
2023-04-15T14:32:15.683Z,77.50
2023-04-15T14:34:45.313Z,77.50
2023-04-15T14:37:14.914Z,77.60
2023-04-15T14:39:44.461Z,77.90
2023-04-15T14:42:13.977Z,78.10
2023-04-15T14:44:44.746Z,78.10
2023-04-15T14:47:14.248Z,77.60
2023-04-15T14:49:43.766Z,77.20
2023-04-15T14:52:13.703Z,77.00
2023-04-15T14:54:43.198Z,77.40
2023-04-15T14:57:12.659Z,77.70
2023-04-15T14:59:42.164Z,77.90
2023-04-15T15:02:12.982Z,78.50
2023-04-15T15:04:42.829Z,78.70
2023-04-15T15:07:12.413Z,78.70
2023-04-15T15:09:41.972Z,78.80
2023-04-15T15:12:11.808Z,78.80
2023-04-15T15:14:41.241Z,79.00
2023-04-15T15:17:11.340Z,79.20
2023-04-15T15:19:40.906Z,79.10
2023-04-15T15:22:10.414Z,79.10
2023-04-15T15:24:39.879Z,78.80
2023-04-15T15:27:09.404Z,79.10
2023-04-15T15:29:39.268Z,78.10
2023-04-15T15:32:08.745Z,77.90
2023-04-15T15:34:38.265Z,78.10
2023-04-15T15:37:07.812Z,78.00
2023-04-15T15:39:37.448Z,78.20
2023-04-15T15:42:08.838Z,78.20
2023-04-15T15:44:38.317Z,78.40
2023-04-15T15:47:07.644Z,78.30
2023-04-15T15:49:37.196Z,78.70
2023-04-15T15:52:06.819Z,78.30
2023-04-15T15:54:37.588Z,78.40
2023-04-15T15:57:07.229Z,78.30
2023-04-15T15:59:38.272Z,78.20
2023-04-15T16:02:09.403Z,78.00
2023-04-15T16:04:39.812Z,78.20
2023-04-15T16:07:10.649Z,78.50
2023-04-15T16:09:41.016Z,78.60
2023-04-15T16:12:09.676Z,78.60
2023-04-15T16:14:39.691Z,79.10
2023-04-15T16:17:09.063Z,79.60
2023-04-15T16:19:38.643Z,79.60
2023-04-15T16:22:08.078Z,79.20
2023-04-15T16:24:37.933Z,79.10
2023-04-15T16:27:07.392Z,79.10
2023-04-15T16:29:36.903Z,79.00
2023-04-15T16:32:07.008Z,79.30
2023-04-15T16:34:38.073Z,79.50
2023-04-15T16:37:07.621Z,79.70
2023-04-15T16:39:37.563Z,79.50
2023-04-15T16:42:07.384Z,79.30
2023-04-15T16:44:36.890Z,79.50
2023-04-15T16:47:06.436Z,79.30
2023-04-15T16:49:37.334Z,79.10
2023-04-15T16:52:07.056Z,79.30
2023-04-15T16:54:38.138Z,79.10
2023-04-15T16:57:07.990Z,79.40
2023-04-15T16:59:37.398Z,79.40
2023-04-15T17:02:07.702Z,79.50
2023-04-15T17:04:37.462Z,79.70
2023-04-15T17:07:08.894Z,80.00
2023-04-15T17:09:40.362Z,80.30
2023-04-15T17:12:09.959Z,80.10
2023-04-15T17:14:39.332Z,80.20
2023-04-15T17:17:09.717Z,80.30
2023-04-15T17:19:38.431Z,80.50
2023-04-15T17:22:08.150Z,80.70
2023-04-15T17:24:37.678Z,80.80
2023-04-15T17:27:07.101Z,80.80
2023-04-15T17:29:36.658Z,81.00
2023-04-15T17:32:06.287Z,81.10
2023-04-15T17:34:50.081Z,81.20
2023-04-15T17:37:06.774Z,81.20
2023-04-15T17:39:36.188Z,81.10
2023-04-15T17:42:05.629Z,81.10
2023-04-15T17:44:36.437Z,81.10
2023-04-15T17:47:06.299Z,80.30
2023-04-15T17:49:37.903Z,79.70
2023-04-15T17:52:07.582Z,79.20
2023-04-15T17:54:37.078Z,78.80
2023-04-15T17:57:06.665Z,79.10
2023-04-15T17:59:36.213Z,78.50
2023-04-15T18:02:05.937Z,78.60
2023-04-15T18:04:35.592Z,78.50
2023-04-15T18:07:06.611Z,78.20
2023-04-15T18:09:36.819Z,78.30
2023-04-15T18:12:08.087Z,78.50
2023-04-15T18:14:37.673Z,78.50
2023-04-15T18:17:07.896Z,78.60
2023-04-15T18:19:37.326Z,79.00
2023-04-15T18:22:07.081Z,79.00
2023-04-15T18:24:36.610Z,79.30
2023-04-15T18:27:06.195Z,79.30
2023-04-15T18:29:36.589Z,79.40
2023-04-15T18:32:05.348Z,79.50
2023-04-15T18:34:34.701Z,79.50
2023-04-15T18:37:05.250Z,79.60
2023-04-15T18:39:34.693Z,79.70
2023-04-15T18:42:04.572Z,79.90
2023-04-15T18:44:33.995Z,79.90
2023-04-15T18:47:03.570Z,80.20
2023-04-15T18:49:34.607Z,80.50
2023-04-15T18:52:04.182Z,80.20
2023-04-15T18:54:33.647Z,80.10
2023-04-15T18:57:04.034Z,80.30
2023-04-15T18:59:33.882Z,80.10
2023-04-15T19:02:05.123Z,79.80
2023-04-15T19:04:34.663Z,79.80
2023-04-15T19:07:04.639Z,79.90
2023-04-15T19:09:34.369Z,80.10
2023-04-15T19:12:04.266Z,80.10
2023-04-15T19:14:33.864Z,80.00
2023-04-15T19:17:03.715Z,80.10
2023-04-15T19:19:33.627Z,80.00
2023-04-15T19:22:03.368Z,80.10
2023-04-15T19:24:33.372Z,80.40
2023-04-15T19:27:02.960Z,80.80
2023-04-15T19:29:32.596Z,80.60
2023-04-15T19:32:02.167Z,80.60
2023-04-15T19:34:31.754Z,80.90
2023-04-15T19:37:01.301Z,80.80
2023-04-15T19:39:30.832Z,81.00
2023-04-15T19:42:00.508Z,80.80
2023-04-15T19:44:29.920Z,81.40
2023-04-15T19:46:59.617Z,81.40
2023-04-15T19:49:29.258Z,81.40
2023-04-15T19:51:58.740Z,81.40
2023-04-15T19:54:28.372Z,81.60
2023-04-15T19:56:57.833Z,81.90
2023-04-15T19:59:27.371Z,81.70
2023-04-15T20:01:56.988Z,81.60
2023-04-15T20:04:27.301Z,81.80
2023-04-15T20:06:56.034Z,81.70
2023-04-15T20:09:25.628Z,82.20
2023-04-15T20:12:09.283Z,82.00
2023-04-15T20:14:26.428Z,82.30
2023-04-15T20:16:56.158Z,82.20
2023-04-15T20:19:25.552Z,82.50
2023-04-15T20:21:55.089Z,82.40
2023-04-15T20:24:24.447Z,82.40
2023-04-15T20:26:53.920Z,82.50
2023-04-15T20:29:24.012Z,82.40
2023-04-15T20:31:53.544Z,82.50
2023-04-15T20:34:22.965Z,82.70
2023-04-15T20:36:52.452Z,82.80
2023-04-15T20:39:21.918Z,83.10
2023-04-15T20:41:51.404Z,83.50
2023-04-15T20:44:20.824Z,83.60
2023-04-15T20:46:50.608Z,83.80
2023-04-15T20:49:20.049Z,83.70
2023-04-15T20:51:50.293Z,83.70
2023-04-15T20:54:20.616Z,83.80
2023-04-15T20:56:50.037Z,83.80
2023-04-15T20:59:19.602Z,83.70
2023-04-15T21:01:49.082Z,83.50
2023-04-15T21:04:18.913Z,83.50
2023-04-15T21:06:58.491Z,83.20
2023-04-15T21:09:27.907Z,83.40
2023-04-15T21:12:01.529Z,83.40
2023-04-15T21:14:28.459Z,83.40
2023-04-15T21:16:58.743Z,83.30
2023-04-15T21:19:28.158Z,83.20
2023-04-15T21:21:57.591Z,83.40
2023-04-15T21:24:27.006Z,83.30
2023-04-15T21:26:57.242Z,83.50
2023-04-15T21:29:26.864Z,83.60
2023-04-15T21:31:56.497Z,83.50
2023-04-15T21:34:25.883Z,83.60
2023-04-15T21:36:55.497Z,83.70
2023-04-15T21:39:25.018Z,83.80
2023-04-15T21:41:54.636Z,83.60
2023-04-15T21:44:24.604Z,83.80
2023-04-15T21:46:54.188Z,83.70
2023-04-15T21:49:25.335Z,83.80
2023-04-15T21:51:55.015Z,83.80
2023-04-15T21:54:24.444Z,83.90
2023-04-15T21:56:53.862Z,83.90
2023-04-15T21:59:23.217Z,84.00
2023-04-15T22:01:52.784Z,84.00
2023-04-15T22:04:22.440Z,84.00
2023-04-15T22:06:52.286Z,84.00
2023-04-15T22:09:21.657Z,84.20
2023-04-15T22:11:51.075Z,84.30
2023-04-15T22:14:20.495Z,84.20
2023-04-15T22:16:50.027Z,84.20
2023-04-15T22:19:19.637Z,84.10
2023-04-15T22:21:50.227Z,84.20
2023-04-15T22:24:38.026Z,84.30
2023-04-15T22:26:50.798Z,84.20
2023-04-15T22:29:20.191Z,84.10
2023-04-15T22:31:49.761Z,84.30
2023-04-15T22:34:21.391Z,84.10
2023-04-15T22:36:52.205Z,84.20
2023-04-15T22:39:22.056Z,84.10
2023-04-15T22:41:51.672Z,84.40
2023-04-15T22:44:21.232Z,84.40
2023-04-15T22:46:52.294Z,84.50
2023-04-15T22:49:21.733Z,84.50
2023-04-15T22:51:51.160Z,84.60
2023-04-15T22:54:20.681Z,84.60
2023-04-15T22:56:50.141Z,84.60
2023-04-15T22:59:19.512Z,84.50
2023-04-15T23:01:49.237Z,84.70
2023-04-15T23:04:26.637Z,84.50
2023-04-15T23:06:50.690Z,84.70
2023-04-15T23:09:20.878Z,84.60
2023-04-15T23:11:50.466Z,84.70
2023-04-15T23:14:19.856Z,84.60
2023-04-15T23:16:49.271Z,84.70
2023-04-15T23:19:18.747Z,84.80
2023-04-15T23:21:48.339Z,85.00
2023-04-15T23:24:18.022Z,84.70
2023-04-15T23:26:47.406Z,84.60
2023-04-15T23:29:16.893Z,84.70
2023-04-15T23:31:46.369Z,84.60
2023-04-15T23:34:15.908Z,84.60
2023-04-15T23:36:46.921Z,84.60
2023-04-15T23:39:16.447Z,84.50
2023-04-15T23:41:45.846Z,84.60
2023-04-15T23:44:15.811Z,84.60
2023-04-15T23:46:45.237Z,84.80
2023-04-15T23:49:14.714Z,85.00
2023-04-15T23:51:44.740Z,85.00
2023-04-15T23:54:14.452Z,85.00
2023-04-15T23:56:43.828Z,85.10
2023-04-15T23:59:13.353Z,85.10
